sensor_id;sensor_type;location;lat;lon;timestamp;P1;durP1;ratioP1;P2;durP2;ratioP2
68229;SDS011;55048;52.220;5.160;2023-07-16T00:01:58;5.20;;;0.85;;
68229;SDS011;55048;52.220;5.160;2023-07-16T00:04:23;3.25;;;0.82;;
68229;SDS011;55048;52.220;5.160;2023-07-16T00:06:49;5.63;;;1.10;;
68229;SDS011;55048;52.220;5.160;2023-07-16T00:09:14;8.55;;;1.00;;
68229;SDS011;55048;52.220;5.160;2023-07-16T00:11:40;7.85;;;1.10;;
68229;SDS011;55048;52.220;5.160;2023-07-16T00:14:06;3.55;;;0.98;;
68229;SDS011;55048;52.220;5.160;2023-07-16T00:16:31;6.00;;;1.15;;
68229;SDS011;55048;52.220;5.160;2023-07-16T00:18:57;7.55;;;1.02;;
68229;SDS011;55048;52.220;5.160;2023-07-16T00:21:22;6.32;;;1.30;;
68229;SDS011;55048;52.220;5.160;2023-07-16T00:23:48;4.95;;;1.20;;
68229;SDS011;55048;52.220;5.160;2023-07-16T00:26:14;7.68;;;1.40;;
68229;SDS011;55048;52.220;5.160;2023-07-16T00:28:39;8.32;;;1.20;;
68229;SDS011;55048;52.220;5.160;2023-07-16T00:31:05;7.03;;;1.10;;
68229;SDS011;55048;52.220;5.160;2023-07-16T00:33:30;6.25;;;1.20;;
68229;SDS011;55048;52.220;5.160;2023-07-16T00:35:56;4.57;;;1.00;;
68229;SDS011;55048;52.220;5.160;2023-07-16T00:38:21;7.97;;;1.15;;
68229;SDS011;55048;52.220;5.160;2023-07-16T00:40:47;8.90;;;1.15;;
68229;SDS011;55048;52.220;5.160;2023-07-16T00:43:12;5.95;;;1.08;;
68229;SDS011;55048;52.220;5.160;2023-07-16T00:45:38;7.68;;;0.90;;
68229;SDS011;55048;52.220;5.160;2023-07-16T00:48:06;7.32;;;1.23;;
68229;SDS011;55048;52.220;5.160;2023-07-16T00:50:33;8.75;;;1.40;;
68229;SDS011;55048;52.220;5.160;2023-07-16T00:53:04;7.40;;;1.05;;
68229;SDS011;55048;52.220;5.160;2023-07-16T00:55:34;4.78;;;1.02;;
68229;SDS011;55048;52.220;5.160;2023-07-16T00:58:01;9.90;;;1.20;;
68229;SDS011;55048;52.220;5.160;2023-07-16T01:00:30;10.13;;;1.35;;
68229;SDS011;55048;52.220;5.160;2023-07-16T01:02:57;10.50;;;1.23;;
68229;SDS011;55048;52.220;5.160;2023-07-16T01:05:23;6.32;;;1.38;;
68229;SDS011;55048;52.220;5.160;2023-07-16T01:07:53;7.45;;;1.30;;
68229;SDS011;55048;52.220;5.160;2023-07-16T01:10:23;7.72;;;1.40;;
68229;SDS011;55048;52.220;5.160;2023-07-16T01:12:51;13.75;;;1.70;;
68229;SDS011;55048;52.220;5.160;2023-07-16T01:15:22;5.07;;;1.27;;
68229;SDS011;55048;52.220;5.160;2023-07-16T01:17:48;10.00;;;1.30;;
68229;SDS011;55048;52.220;5.160;2023-07-16T01:20:13;6.93;;;1.40;;
68229;SDS011;55048;52.220;5.160;2023-07-16T01:23:26;5.55;;;1.40;;
68229;SDS011;55048;52.220;5.160;2023-07-16T01:26:04;8.30;;;1.50;;
68229;SDS011;55048;52.220;5.160;2023-07-16T01:31:27;9.15;;;1.50;;
68229;SDS011;55048;52.220;5.160;2023-07-16T01:33:53;7.80;;;1.30;;
68229;SDS011;55048;52.220;5.160;2023-07-16T01:36:19;8.75;;;1.30;;
68229;SDS011;55048;52.220;5.160;2023-07-16T01:38:46;5.78;;;1.67;;
68229;SDS011;55048;52.220;5.160;2023-07-16T01:41:12;5.57;;;1.67;;
68229;SDS011;55048;52.220;5.160;2023-07-16T01:43:37;6.68;;;1.60;;
68229;SDS011;55048;52.220;5.160;2023-07-16T01:46:03;12.45;;;1.95;;
68229;SDS011;55048;52.220;5.160;2023-07-16T01:50:58;11.20;;;1.85;;
68229;SDS011;55048;52.220;5.160;2023-07-16T01:53:24;9.68;;;2.10;;
68229;SDS011;55048;52.220;5.160;2023-07-16T01:55:49;11.27;;;1.70;;
68229;SDS011;55048;52.220;5.160;2023-07-16T01:58:15;7.20;;;1.55;;
68229;SDS011;55048;52.220;5.160;2023-07-16T02:00:41;8.80;;;1.58;;
68229;SDS011;55048;52.220;5.160;2023-07-16T02:03:06;9.95;;;1.80;;
68229;SDS011;55048;52.220;5.160;2023-07-16T02:05:31;12.25;;;2.08;;
68229;SDS011;55048;52.220;5.160;2023-07-16T02:07:57;6.95;;;1.77;;
68229;SDS011;55048;52.220;5.160;2023-07-16T02:10:22;9.07;;;1.88;;
68229;SDS011;55048;52.220;5.160;2023-07-16T02:12:48;12.25;;;1.85;;
68229;SDS011;55048;52.220;5.160;2023-07-16T02:15:13;9.52;;;2.05;;
68229;SDS011;55048;52.220;5.160;2023-07-16T02:17:41;11.63;;;2.17;;
68229;SDS011;55048;52.220;5.160;2023-07-16T02:20:08;9.40;;;2.17;;
68229;SDS011;55048;52.220;5.160;2023-07-16T02:22:35;6.95;;;1.75;;
68229;SDS011;55048;52.220;5.160;2023-07-16T02:25:01;7.80;;;2.08;;
68229;SDS011;55048;52.220;5.160;2023-07-16T02:27:27;13.07;;;2.63;;
68229;SDS011;55048;52.220;5.160;2023-07-16T02:29:52;11.48;;;2.38;;
68229;SDS011;55048;52.220;5.160;2023-07-16T02:32:18;8.75;;;2.55;;
68229;SDS011;55048;52.220;5.160;2023-07-16T02:34:43;13.32;;;2.17;;
68229;SDS011;55048;52.220;5.160;2023-07-16T02:37:09;11.43;;;2.08;;
68229;SDS011;55048;52.220;5.160;2023-07-16T02:39:34;11.05;;;2.25;;
68229;SDS011;55048;52.220;5.160;2023-07-16T02:42:00;10.57;;;2.38;;
68229;SDS011;55048;52.220;5.160;2023-07-16T02:44:25;11.63;;;2.17;;
68229;SDS011;55048;52.220;5.160;2023-07-16T02:46:51;12.20;;;2.10;;
68229;SDS011;55048;52.220;5.160;2023-07-16T02:49:16;11.25;;;2.33;;
68229;SDS011;55048;52.220;5.160;2023-07-16T02:51:42;9.55;;;2.53;;
68229;SDS011;55048;52.220;5.160;2023-07-16T02:54:07;15.70;;;2.58;;
68229;SDS011;55048;52.220;5.160;2023-07-16T02:56:33;7.13;;;2.05;;
68229;SDS011;55048;52.220;5.160;2023-07-16T02:58:59;12.85;;;3.15;;
68229;SDS011;55048;52.220;5.160;2023-07-16T03:01:24;9.80;;;2.15;;
68229;SDS011;55048;52.220;5.160;2023-07-16T03:03:49;10.55;;;2.28;;
68229;SDS011;55048;52.220;5.160;2023-07-16T03:06:15;6.32;;;2.42;;
68229;SDS011;55048;52.220;5.160;2023-07-16T03:08:41;11.38;;;2.65;;
68229;SDS011;55048;52.220;5.160;2023-07-16T03:11:06;9.77;;;2.00;;
68229;SDS011;55048;52.220;5.160;2023-07-16T03:13:32;9.05;;;2.50;;
68229;SDS011;55048;52.220;5.160;2023-07-16T03:15:58;15.55;;;2.13;;
68229;SDS011;55048;52.220;5.160;2023-07-16T03:18:27;11.85;;;3.67;;
68229;SDS011;55048;52.220;5.160;2023-07-16T03:20:53;9.88;;;2.45;;
68229;SDS011;55048;52.220;5.160;2023-07-16T03:23:18;7.25;;;2.03;;
68229;SDS011;55048;52.220;5.160;2023-07-16T03:25:44;10.15;;;2.53;;
68229;SDS011;55048;52.220;5.160;2023-07-16T03:28:10;14.15;;;2.65;;
68229;SDS011;55048;52.220;5.160;2023-07-16T03:30:35;14.25;;;3.00;;
68229;SDS011;55048;52.220;5.160;2023-07-16T03:33:02;14.77;;;2.42;;
68229;SDS011;55048;52.220;5.160;2023-07-16T03:35:29;11.57;;;2.72;;
68229;SDS011;55048;52.220;5.160;2023-07-16T03:37:54;8.57;;;1.80;;
68229;SDS011;55048;52.220;5.160;2023-07-16T03:40:23;8.20;;;1.83;;
68229;SDS011;55048;52.220;5.160;2023-07-16T03:42:50;6.13;;;1.80;;
68229;SDS011;55048;52.220;5.160;2023-07-16T03:45:15;7.72;;;2.30;;
68229;SDS011;55048;52.220;5.160;2023-07-16T03:47:41;10.05;;;2.13;;
68229;SDS011;55048;52.220;5.160;2023-07-16T03:50:07;8.48;;;2.03;;
68229;SDS011;55048;52.220;5.160;2023-07-16T03:52:33;9.52;;;1.73;;
68229;SDS011;55048;52.220;5.160;2023-07-16T03:54:59;11.50;;;1.92;;
68229;SDS011;55048;52.220;5.160;2023-07-16T03:57:26;8.13;;;1.92;;
68229;SDS011;55048;52.220;5.160;2023-07-16T03:59:53;8.52;;;1.90;;
68229;SDS011;55048;52.220;5.160;2023-07-16T04:02:19;7.07;;;1.42;;
68229;SDS011;55048;52.220;5.160;2023-07-16T04:04:45;9.15;;;1.90;;
68229;SDS011;55048;52.220;5.160;2023-07-16T04:07:11;7.82;;;2.53;;
68229;SDS011;55048;52.220;5.160;2023-07-16T04:09:37;10.55;;;2.30;;
68229;SDS011;55048;52.220;5.160;2023-07-16T04:12:04;8.80;;;2.42;;
68229;SDS011;55048;52.220;5.160;2023-07-16T04:14:30;17.33;;;2.45;;
68229;SDS011;55048;52.220;5.160;2023-07-16T04:16:55;10.25;;;2.20;;
68229;SDS011;55048;52.220;5.160;2023-07-16T04:19:21;6.57;;;2.13;;
68229;SDS011;55048;52.220;5.160;2023-07-16T04:21:46;7.35;;;1.88;;
68229;SDS011;55048;52.220;5.160;2023-07-16T04:24:12;11.27;;;2.47;;
68229;SDS011;55048;52.220;5.160;2023-07-16T04:26:37;9.23;;;1.88;;
68229;SDS011;55048;52.220;5.160;2023-07-16T04:29:02;11.40;;;2.60;;
68229;SDS011;55048;52.220;5.160;2023-07-16T04:31:28;14.05;;;2.85;;
68229;SDS011;55048;52.220;5.160;2023-07-16T04:33:53;8.35;;;2.40;;
68229;SDS011;55048;52.220;5.160;2023-07-16T04:36:19;14.05;;;2.92;;
68229;SDS011;55048;52.220;5.160;2023-07-16T04:38:44;8.45;;;2.88;;
68229;SDS011;55048;52.220;5.160;2023-07-16T04:41:10;8.07;;;1.60;;
68229;SDS011;55048;52.220;5.160;2023-07-16T04:43:35;9.80;;;2.72;;
68229;SDS011;55048;52.220;5.160;2023-07-16T04:46:00;16.80;;;3.00;;
68229;SDS011;55048;52.220;5.160;2023-07-16T04:48:26;9.25;;;2.63;;
68229;SDS011;55048;52.220;5.160;2023-07-16T04:50:51;10.80;;;2.92;;
68229;SDS011;55048;52.220;5.160;2023-07-16T04:53:20;12.70;;;2.40;;
68229;SDS011;55048;52.220;5.160;2023-07-16T04:55:47;8.27;;;2.38;;
68229;SDS011;55048;52.220;5.160;2023-07-16T04:58:12;13.75;;;3.40;;
68229;SDS011;55048;52.220;5.160;2023-07-16T05:00:38;10.80;;;3.03;;
68229;SDS011;55048;52.220;5.160;2023-07-16T05:03:04;4.53;;;1.85;;
68229;SDS011;55048;52.220;5.160;2023-07-16T05:05:29;9.25;;;2.53;;
68229;SDS011;55048;52.220;5.160;2023-07-16T05:07:55;10.75;;;3.15;;
68229;SDS011;55048;52.220;5.160;2023-07-16T05:10:20;9.25;;;2.63;;
68229;SDS011;55048;52.220;5.160;2023-07-16T05:12:46;10.32;;;2.88;;
68229;SDS011;55048;52.220;5.160;2023-07-16T05:15:11;7.38;;;2.83;;
68229;SDS011;55048;52.220;5.160;2023-07-16T05:17:37;10.38;;;2.53;;
68229;SDS011;55048;52.220;5.160;2023-07-16T05:20:02;7.07;;;2.60;;
68229;SDS011;55048;52.220;5.160;2023-07-16T05:22:29;5.65;;;2.95;;
68229;SDS011;55048;52.220;5.160;2023-07-16T05:24:55;12.18;;;3.15;;
68229;SDS011;55048;52.220;5.160;2023-07-16T05:27:20;7.65;;;2.55;;
68229;SDS011;55048;52.220;5.160;2023-07-16T05:29:45;7.05;;;2.83;;
68229;SDS011;55048;52.220;5.160;2023-07-16T05:32:11;8.40;;;2.35;;
68229;SDS011;55048;52.220;5.160;2023-07-16T05:34:36;11.77;;;2.60;;
68229;SDS011;55048;52.220;5.160;2023-07-16T05:37:02;9.02;;;2.38;;
68229;SDS011;55048;52.220;5.160;2023-07-16T05:39:27;8.98;;;2.85;;
68229;SDS011;55048;52.220;5.160;2023-07-16T05:41:53;6.70;;;2.08;;
68229;SDS011;55048;52.220;5.160;2023-07-16T05:44:18;6.85;;;2.80;;
68229;SDS011;55048;52.220;5.160;2023-07-16T05:46:45;8.27;;;2.53;;
68229;SDS011;55048;52.220;5.160;2023-07-16T05:49:10;10.38;;;2.67;;
68229;SDS011;55048;52.220;5.160;2023-07-16T05:51:36;7.93;;;2.70;;
68229;SDS011;55048;52.220;5.160;2023-07-16T05:54:02;13.73;;;2.40;;
68229;SDS011;55048;52.220;5.160;2023-07-16T05:56:27;8.98;;;2.20;;
68229;SDS011;55048;52.220;5.160;2023-07-16T05:58:53;6.75;;;1.65;;
68229;SDS011;55048;52.220;5.160;2023-07-16T06:01:18;6.85;;;2.42;;
68229;SDS011;55048;52.220;5.160;2023-07-16T06:03:44;12.52;;;2.92;;
68229;SDS011;55048;52.220;5.160;2023-07-16T06:06:09;10.57;;;2.33;;
68229;SDS011;55048;52.220;5.160;2023-07-16T06:08:35;15.10;;;3.60;;
68229;SDS011;55048;52.220;5.160;2023-07-16T06:11:00;7.20;;;2.53;;
68229;SDS011;55048;52.220;5.160;2023-07-16T06:13:26;9.20;;;3.08;;
68229;SDS011;55048;52.220;5.160;2023-07-16T06:15:51;7.93;;;2.25;;
68229;SDS011;55048;52.220;5.160;2023-07-16T06:18:17;9.10;;;2.58;;
68229;SDS011;55048;52.220;5.160;2023-07-16T06:20:43;7.10;;;2.20;;
68229;SDS011;55048;52.220;5.160;2023-07-16T06:23:09;8.52;;;2.17;;
68229;SDS011;55048;52.220;5.160;2023-07-16T06:25:36;9.55;;;2.90;;
68229;SDS011;55048;52.220;5.160;2023-07-16T06:28:02;11.27;;;3.20;;
68229;SDS011;55048;52.220;5.160;2023-07-16T06:30:27;12.27;;;2.80;;
68229;SDS011;55048;52.220;5.160;2023-07-16T06:32:53;11.55;;;3.22;;
68229;SDS011;55048;52.220;5.160;2023-07-16T06:35:18;5.85;;;2.47;;
68229;SDS011;55048;52.220;5.160;2023-07-16T06:37:43;12.23;;;2.15;;
68229;SDS011;55048;52.220;5.160;2023-07-16T06:40:09;5.53;;;2.33;;
68229;SDS011;55048;52.220;5.160;2023-07-16T06:42:35;10.38;;;2.97;;
68229;SDS011;55048;52.220;5.160;2023-07-16T06:45:00;15.20;;;3.10;;
68229;SDS011;55048;52.220;5.160;2023-07-16T06:47:26;16.13;;;3.38;;
68229;SDS011;55048;52.220;5.160;2023-07-16T06:49:51;11.52;;;3.17;;
68229;SDS011;55048;52.220;5.160;2023-07-16T06:52:23;9.23;;;2.60;;
68229;SDS011;55048;52.220;5.160;2023-07-16T06:54:52;7.07;;;2.80;;
68229;SDS011;55048;52.220;5.160;2023-07-16T06:57:21;10.27;;;3.23;;
68229;SDS011;55048;52.220;5.160;2023-07-16T06:59:47;8.82;;;3.10;;
68229;SDS011;55048;52.220;5.160;2023-07-16T07:02:13;8.85;;;2.58;;
68229;SDS011;55048;52.220;5.160;2023-07-16T07:04:38;7.15;;;2.72;;
68229;SDS011;55048;52.220;5.160;2023-07-16T07:07:04;7.95;;;2.47;;
68229;SDS011;55048;52.220;5.160;2023-07-16T07:09:31;9.45;;;3.25;;
68229;SDS011;55048;52.220;5.160;2023-07-16T07:11:56;8.27;;;2.90;;
68229;SDS011;55048;52.220;5.160;2023-07-16T07:14:22;16.33;;;2.30;;
68229;SDS011;55048;52.220;5.160;2023-07-16T07:16:47;7.00;;;2.35;;
68229;SDS011;55048;52.220;5.160;2023-07-16T07:19:13;11.43;;;2.88;;
68229;SDS011;55048;52.220;5.160;2023-07-16T07:21:38;11.30;;;3.58;;
68229;SDS011;55048;52.220;5.160;2023-07-16T07:24:03;6.30;;;2.38;;
68229;SDS011;55048;52.220;5.160;2023-07-16T07:26:30;9.23;;;2.90;;
68229;SDS011;55048;52.220;5.160;2023-07-16T07:28:55;10.50;;;3.28;;
68229;SDS011;55048;52.220;5.160;2023-07-16T07:31:21;15.98;;;3.20;;
68229;SDS011;55048;52.220;5.160;2023-07-16T07:33:46;11.85;;;3.20;;
68229;SDS011;55048;52.220;5.160;2023-07-16T07:36:12;12.73;;;3.05;;
68229;SDS011;55048;52.220;5.160;2023-07-16T07:38:37;12.70;;;2.35;;
68229;SDS011;55048;52.220;5.160;2023-07-16T07:41:04;10.63;;;3.15;;
68229;SDS011;55048;52.220;5.160;2023-07-16T07:43:30;9.27;;;2.83;;
68229;SDS011;55048;52.220;5.160;2023-07-16T07:45:55;9.90;;;3.42;;
68229;SDS011;55048;52.220;5.160;2023-07-16T07:48:20;9.63;;;2.70;;
68229;SDS011;55048;52.220;5.160;2023-07-16T07:50:46;12.10;;;3.20;;
68229;SDS011;55048;52.220;5.160;2023-07-16T07:53:12;8.95;;;2.95;;
68229;SDS011;55048;52.220;5.160;2023-07-16T07:55:39;9.02;;;2.58;;
68229;SDS011;55048;52.220;5.160;2023-07-16T07:58:05;8.60;;;3.70;;
68229;SDS011;55048;52.220;5.160;2023-07-16T08:00:30;12.75;;;3.85;;
68229;SDS011;55048;52.220;5.160;2023-07-16T08:02:56;10.98;;;3.00;;
68229;SDS011;55048;52.220;5.160;2023-07-16T08:05:21;11.80;;;2.97;;
68229;SDS011;55048;52.220;5.160;2023-07-16T08:07:47;9.38;;;3.42;;
68229;SDS011;55048;52.220;5.160;2023-07-16T08:10:12;13.30;;;3.75;;
68229;SDS011;55048;52.220;5.160;2023-07-16T08:12:37;11.20;;;3.90;;
68229;SDS011;55048;52.220;5.160;2023-07-16T08:15:03;7.45;;;2.00;;
68229;SDS011;55048;52.220;5.160;2023-07-16T08:17:29;8.20;;;3.22;;
68229;SDS011;55048;52.220;5.160;2023-07-16T08:19:54;12.73;;;3.28;;
68229;SDS011;55048;52.220;5.160;2023-07-16T08:22:20;16.13;;;3.60;;
68229;SDS011;55048;52.220;5.160;2023-07-16T08:24:45;8.43;;;3.30;;
68229;SDS011;55048;52.220;5.160;2023-07-16T08:27:11;9.25;;;2.90;;
68229;SDS011;55048;52.220;5.160;2023-07-16T08:29:36;10.18;;;2.97;;
68229;SDS011;55048;52.220;5.160;2023-07-16T08:32:02;10.05;;;2.80;;
68229;SDS011;55048;52.220;5.160;2023-07-16T08:34:28;10.43;;;2.92;;
68229;SDS011;55048;52.220;5.160;2023-07-16T08:36:53;9.25;;;2.58;;
68229;SDS011;55048;52.220;5.160;2023-07-16T08:39:19;13.75;;;2.95;;
68229;SDS011;55048;52.220;5.160;2023-07-16T08:41:45;11.32;;;3.13;;
68229;SDS011;55048;52.220;5.160;2023-07-16T08:44:11;9.02;;;3.17;;
68229;SDS011;55048;52.220;5.160;2023-07-16T08:46:37;6.55;;;2.85;;
68229;SDS011;55048;52.220;5.160;2023-07-16T08:49:05;11.88;;;3.40;;
68229;SDS011;55048;52.220;5.160;2023-07-16T08:51:32;9.15;;;2.47;;
68229;SDS011;55048;52.220;5.160;2023-07-16T08:53:59;9.55;;;1.67;;
68229;SDS011;55048;52.220;5.160;2023-07-16T08:56:25;11.05;;;2.22;;
68229;SDS011;55048;52.220;5.160;2023-07-16T08:58:53;10.80;;;2.50;;
68229;SDS011;55048;52.220;5.160;2023-07-16T09:01:23;10.55;;;2.88;;
68229;SDS011;55048;52.220;5.160;2023-07-16T09:03:48;14.18;;;2.67;;
68229;SDS011;55048;52.220;5.160;2023-07-16T09:06:14;12.80;;;2.90;;
68229;SDS011;55048;52.220;5.160;2023-07-16T09:08:39;7.25;;;2.72;;
68229;SDS011;55048;52.220;5.160;2023-07-16T09:11:04;12.65;;;3.08;;
68229;SDS011;55048;52.220;5.160;2023-07-16T09:13:30;11.20;;;3.33;;
68229;SDS011;55048;52.220;5.160;2023-07-16T09:15:56;13.00;;;3.67;;
68229;SDS011;55048;52.220;5.160;2023-07-16T09:18:26;9.68;;;2.90;;
68229;SDS011;55048;52.220;5.160;2023-07-16T09:20:59;12.15;;;3.78;;
68229;SDS011;55048;52.220;5.160;2023-07-16T09:23:29;9.70;;;3.60;;
68229;SDS011;55048;52.220;5.160;2023-07-16T09:25:56;12.35;;;3.17;;
68229;SDS011;55048;52.220;5.160;2023-07-16T09:28:22;10.82;;;3.47;;
68229;SDS011;55048;52.220;5.160;2023-07-16T09:30:48;6.70;;;3.17;;
68229;SDS011;55048;52.220;5.160;2023-07-16T09:33:16;9.32;;;2.90;;
68229;SDS011;55048;52.220;5.160;2023-07-16T09:35:43;8.85;;;3.03;;
68229;SDS011;55048;52.220;5.160;2023-07-16T09:38:09;9.68;;;3.08;;
68229;SDS011;55048;52.220;5.160;2023-07-16T09:40:38;11.65;;;3.03;;
68229;SDS011;55048;52.220;5.160;2023-07-16T09:43:07;11.63;;;3.28;;
68229;SDS011;55048;52.220;5.160;2023-07-16T09:45:33;8.15;;;3.05;;
68229;SDS011;55048;52.220;5.160;2023-07-16T09:47:59;4.85;;;2.17;;
68229;SDS011;55048;52.220;5.160;2023-07-16T09:50:27;10.40;;;2.85;;
68229;SDS011;55048;52.220;5.160;2023-07-16T09:52:55;7.43;;;3.10;;
68229;SDS011;55048;52.220;5.160;2023-07-16T09:55:21;14.23;;;3.55;;
68229;SDS011;55048;52.220;5.160;2023-07-16T09:57:47;5.10;;;1.98;;
68229;SDS011;55048;52.220;5.160;2023-07-16T10:00:14;10.38;;;2.92;;
68229;SDS011;55048;52.220;5.160;2023-07-16T10:02:42;6.50;;;2.47;;
68229;SDS011;55048;52.220;5.160;2023-07-16T10:05:17;8.07;;;2.72;;
68229;SDS011;55048;52.220;5.160;2023-07-16T10:07:55;7.47;;;2.75;;
68229;SDS011;55048;52.220;5.160;2023-07-16T10:10:38;8.90;;;2.50;;
68229;SDS011;55048;52.220;5.160;2023-07-16T10:13:06;8.52;;;2.60;;
68229;SDS011;55048;52.220;5.160;2023-07-16T10:15:32;8.65;;;2.97;;
68229;SDS011;55048;52.220;5.160;2023-07-16T10:17:58;9.02;;;2.72;;
68229;SDS011;55048;52.220;5.160;2023-07-16T10:20:30;8.98;;;2.50;;
68229;SDS011;55048;52.220;5.160;2023-07-16T10:22:57;5.57;;;2.00;;
68229;SDS011;55048;52.220;5.160;2023-07-16T10:25:24;7.18;;;2.58;;
68229;SDS011;55048;52.220;5.160;2023-07-16T10:27:51;13.32;;;2.55;;
68229;SDS011;55048;52.220;5.160;2023-07-16T10:30:18;5.93;;;2.42;;
68229;SDS011;55048;52.220;5.160;2023-07-16T10:32:44;7.25;;;2.25;;
68229;SDS011;55048;52.220;5.160;2023-07-16T10:35:11;8.90;;;2.20;;
68229;SDS011;55048;52.220;5.160;2023-07-16T10:37:37;8.35;;;2.75;;
68229;SDS011;55048;52.220;5.160;2023-07-16T10:40:04;9.38;;;2.22;;
68229;SDS011;55048;52.220;5.160;2023-07-16T10:42:30;6.28;;;2.60;;
68229;SDS011;55048;52.220;5.160;2023-07-16T10:45:00;3.95;;;2.53;;
68229;SDS011;55048;52.220;5.160;2023-07-16T10:47:30;7.90;;;2.20;;
68229;SDS011;55048;52.220;5.160;2023-07-16T10:50:00;7.07;;;2.53;;
68229;SDS011;55048;52.220;5.160;2023-07-16T10:52:28;7.57;;;2.35;;
68229;SDS011;55048;52.220;5.160;2023-07-16T10:54:53;8.68;;;2.35;;
68229;SDS011;55048;52.220;5.160;2023-07-16T10:57:23;5.72;;;2.45;;
68229;SDS011;55048;52.220;5.160;2023-07-16T10:59:50;8.75;;;2.58;;
68229;SDS011;55048;52.220;5.160;2023-07-16T11:02:16;4.55;;;1.67;;
68229;SDS011;55048;52.220;5.160;2023-07-16T11:04:43;5.22;;;1.80;;
68229;SDS011;55048;52.220;5.160;2023-07-16T11:07:12;5.47;;;2.13;;
68229;SDS011;55048;52.220;5.160;2023-07-16T11:09:45;4.68;;;1.33;;
68229;SDS011;55048;52.220;5.160;2023-07-16T11:12:14;4.03;;;1.50;;
68229;SDS011;55048;52.220;5.160;2023-07-16T11:14:48;6.13;;;1.45;;
68229;SDS011;55048;52.220;5.160;2023-07-16T11:17:14;3.40;;;1.30;;
68229;SDS011;55048;52.220;5.160;2023-07-16T11:19:41;4.03;;;1.40;;
68229;SDS011;55048;52.220;5.160;2023-07-16T11:22:09;4.55;;;1.48;;
68229;SDS011;55048;52.220;5.160;2023-07-16T11:24:42;6.75;;;1.40;;
68229;SDS011;55048;52.220;5.160;2023-07-16T11:29:40;4.15;;;1.48;;
68229;SDS011;55048;52.220;5.160;2023-07-16T11:32:10;2.08;;;0.80;;
68229;SDS011;55048;52.220;5.160;2023-07-16T11:34:35;3.78;;;1.10;;
68229;SDS011;55048;52.220;5.160;2023-07-16T11:37:08;2.83;;;1.00;;
68229;SDS011;55048;52.220;5.160;2023-07-16T11:39:34;4.55;;;1.35;;
68229;SDS011;55048;52.220;5.160;2023-07-16T11:41:59;11.00;;;1.95;;
68229;SDS011;55048;52.220;5.160;2023-07-16T11:44:37;6.72;;;1.40;;
68229;SDS011;55048;52.220;5.160;2023-07-16T11:47:02;6.22;;;1.15;;
68229;SDS011;55048;52.220;5.160;2023-07-16T11:49:29;5.20;;;1.48;;
68229;SDS011;55048;52.220;5.160;2023-07-16T11:51:54;6.47;;;1.75;;
68229;SDS011;55048;52.220;5.160;2023-07-16T11:54:20;4.20;;;1.50;;
68229;SDS011;55048;52.220;5.160;2023-07-16T11:56:45;3.70;;;1.00;;
68229;SDS011;55048;52.220;5.160;2023-07-16T11:59:12;3.78;;;1.10;;
68229;SDS011;55048;52.220;5.160;2023-07-16T12:01:38;5.63;;;1.40;;
68229;SDS011;55048;52.220;5.160;2023-07-16T12:04:03;6.43;;;1.20;;
68229;SDS011;55048;52.220;5.160;2023-07-16T12:06:28;7.82;;;1.27;;
68229;SDS011;55048;52.220;5.160;2023-07-16T12:08:54;5.03;;;1.35;;
68229;SDS011;55048;52.220;5.160;2023-07-16T12:11:20;5.85;;;1.30;;
68229;SDS011;55048;52.220;5.160;2023-07-16T12:13:47;3.67;;;1.17;;
68229;SDS011;55048;52.220;5.160;2023-07-16T12:16:13;6.85;;;1.50;;
68229;SDS011;55048;52.220;5.160;2023-07-16T12:18:38;3.00;;;1.10;;
68229;SDS011;55048;52.220;5.160;2023-07-16T12:21:04;4.25;;;1.23;;
68229;SDS011;55048;52.220;5.160;2023-07-16T12:23:29;8.68;;;1.65;;
68229;SDS011;55048;52.220;5.160;2023-07-16T12:25:55;6.95;;;1.42;;
68229;SDS011;55048;52.220;5.160;2023-07-16T12:28:20;6.80;;;1.95;;
68229;SDS011;55048;52.220;5.160;2023-07-16T12:30:46;4.40;;;1.38;;
68229;SDS011;55048;52.220;5.160;2023-07-16T12:33:11;7.30;;;1.25;;
68229;SDS011;55048;52.220;5.160;2023-07-16T12:35:37;3.00;;;1.20;;
68229;SDS011;55048;52.220;5.160;2023-07-16T12:38:02;7.07;;;1.20;;
68229;SDS011;55048;52.220;5.160;2023-07-16T12:40:29;4.15;;;1.20;;
68229;SDS011;55048;52.220;5.160;2023-07-16T12:42:55;7.30;;;1.30;;
68229;SDS011;55048;52.220;5.160;2023-07-16T12:45:21;4.72;;;1.10;;
68229;SDS011;55048;52.220;5.160;2023-07-16T12:47:46;5.97;;;1.30;;
68229;SDS011;55048;52.220;5.160;2023-07-16T12:50:12;7.20;;;1.10;;
68229;SDS011;55048;52.220;5.160;2023-07-16T12:52:38;6.15;;;1.35;;
68229;SDS011;55048;52.220;5.160;2023-07-16T12:55:03;4.85;;;1.10;;
68229;SDS011;55048;52.220;5.160;2023-07-16T12:57:30;3.60;;;1.00;;
68229;SDS011;55048;52.220;5.160;2023-07-16T12:59:57;3.35;;;0.90;;
68229;SDS011;55048;52.220;5.160;2023-07-16T13:02:22;7.57;;;1.40;;
68229;SDS011;55048;52.220;5.160;2023-07-16T13:04:48;6.72;;;1.02;;
68229;SDS011;55048;52.220;5.160;2023-07-16T13:07:13;6.55;;;1.10;;
68229;SDS011;55048;52.220;5.160;2023-07-16T13:09:38;5.40;;;1.10;;
68229;SDS011;55048;52.220;5.160;2023-07-16T13:12:04;3.63;;;0.73;;
68229;SDS011;55048;52.220;5.160;2023-07-16T13:14:30;4.75;;;0.77;;
68229;SDS011;55048;52.220;5.160;2023-07-16T13:16:55;3.28;;;0.80;;
68229;SDS011;55048;52.220;5.160;2023-07-16T13:19:20;5.50;;;0.80;;
68229;SDS011;55048;52.220;5.160;2023-07-16T13:21:46;5.35;;;1.00;;
68229;SDS011;55048;52.220;5.160;2023-07-16T13:24:11;5.70;;;0.90;;
68229;SDS011;55048;52.220;5.160;2023-07-16T13:26:37;4.60;;;1.23;;
68229;SDS011;55048;52.220;5.160;2023-07-16T13:29:02;5.72;;;1.08;;
68229;SDS011;55048;52.220;5.160;2023-07-16T13:31:28;3.65;;;1.08;;
68229;SDS011;55048;52.220;5.160;2023-07-16T13:33:53;7.63;;;0.90;;
68229;SDS011;55048;52.220;5.160;2023-07-16T13:36:19;5.90;;;0.80;;
68229;SDS011;55048;52.220;5.160;2023-07-16T13:38:44;5.57;;;0.80;;
68229;SDS011;55048;52.220;5.160;2023-07-16T13:41:09;7.15;;;0.80;;
68229;SDS011;55048;52.220;5.160;2023-07-16T13:43:35;5.70;;;0.98;;
68229;SDS011;55048;52.220;5.160;2023-07-16T13:46:00;3.42;;;0.77;;
68229;SDS011;55048;52.220;5.160;2023-07-16T13:48:26;6.00;;;0.77;;
68229;SDS011;55048;52.220;5.160;2023-07-16T13:50:51;6.32;;;0.80;;
68229;SDS011;55048;52.220;5.160;2023-07-16T13:53:16;4.05;;;0.68;;
68229;SDS011;55048;52.220;5.160;2023-07-16T13:55:42;3.65;;;0.85;;
68229;SDS011;55048;52.220;5.160;2023-07-16T13:58:09;7.10;;;0.70;;
68229;SDS011;55048;52.220;5.160;2023-07-16T14:00:34;8.10;;;0.90;;
68229;SDS011;55048;52.220;5.160;2023-07-16T14:03:00;7.30;;;0.88;;
68229;SDS011;55048;52.220;5.160;2023-07-16T14:05:25;8.38;;;1.30;;
68229;SDS011;55048;52.220;5.160;2023-07-16T14:07:51;5.50;;;0.80;;
68229;SDS011;55048;52.220;5.160;2023-07-16T14:10:18;5.32;;;0.73;;
68229;SDS011;55048;52.220;5.160;2023-07-16T14:12:44;6.10;;;0.60;;
68229;SDS011;55048;52.220;5.160;2023-07-16T14:15:09;5.47;;;0.70;;
68229;SDS011;55048;52.220;5.160;2023-07-16T14:17:35;3.67;;;0.75;;
68229;SDS011;55048;52.220;5.160;2023-07-16T14:20:00;6.38;;;0.80;;
68229;SDS011;55048;52.220;5.160;2023-07-16T14:22:25;5.18;;;0.55;;
68229;SDS011;55048;52.220;5.160;2023-07-16T14:24:52;3.65;;;0.60;;
68229;SDS011;55048;52.220;5.160;2023-07-16T14:27:18;8.70;;;0.80;;
68229;SDS011;55048;52.220;5.160;2023-07-16T14:29:45;6.75;;;0.70;;
68229;SDS011;55048;52.220;5.160;2023-07-16T14:32:11;7.68;;;0.80;;
68229;SDS011;55048;52.220;5.160;2023-07-16T14:34:36;5.20;;;0.70;;
68229;SDS011;55048;52.220;5.160;2023-07-16T14:37:01;5.47;;;0.68;;
68229;SDS011;55048;52.220;5.160;2023-07-16T14:39:27;2.83;;;0.55;;
68229;SDS011;55048;52.220;5.160;2023-07-16T14:41:52;3.33;;;0.70;;
68229;SDS011;55048;52.220;5.160;2023-07-16T14:44:18;4.80;;;0.90;;
68229;SDS011;55048;52.220;5.160;2023-07-16T14:46:43;5.07;;;0.90;;